Time;durP1;ratioP1;P1;durP2;ratioP2;P2;SDS_P1;SDS_P2;PMS_P1;PMS_P2;Temp;Humidity;BMP_temperature;BMP_pressure;BME280_temperature;BME280_humidity;BME280_pressure;Samples;Min_cycle;Max_cycle;Signal;HPM_P1;HPM_P2
2022/02/03 05:21:22;;;;;;;5.60;4.63;;;;;;;8.39;81.92;99367.97;2623048;54;20034;-71
2022/02/03 05:32:02;;;;;;;5.05;4.30;;;;;;;8.40;82.15;99350.34;2623661;54;20062;-70
2022/02/03 05:42:22;;;;;;;5.43;3.85;;;;;;;8.46;82.21;99325.16;2621312;54;20041;-69
2022/02/03 05:45:20;;;;;;;4.50;3.40;;;;;;;8.42;82.05;99308.84;2622823;54;20046;-69
2022/02/03 06:02:14;;;;;;;4.40;4.00;;;;;;;8.30;81.54;99292.53;2622560;54;20074;-71
2022/02/03 06:05:03;;;;;;;4.57;4.15;;;;;;;8.30;81.71;99292.53;2623462;54;20026;-71
2022/02/03 06:07:57;;;;;;;6.07;5.10;;;;;;;8.28;81.72;99281.31;2623489;54;20585;-71
2022/02/03 06:13:14;;;;;;;8.80;6.45;;;;;;;8.29;81.15;99276.91;2623404;54;20041;-70
2022/02/03 06:15:52;;;;;;;11.55;6.38;;;;;;;8.25;81.48;99288.75;2623115;54;20617;-69
2022/02/03 06:23:56;;;;;;;7.32;6.32;;;;;;;8.23;81.81;99290.72;2622977;50;20030;-69
2022/02/03 06:29:11;;;;;;;6.43;5.65;;;;;;;8.24;81.71;99295.81;2623603;54;20034;-69
2022/02/03 06:31:42;;;;;;;7.60;5.97;;;;;;;8.23;81.76;99294.16;2624411;54;20096;-69
2022/02/03 06:34:15;;;;;;;7.80;6.15;;;;;;;8.22;81.46;99291.72;2624204;54;20052;-71
2022/02/03 06:36:48;;;;;;;5.68;4.38;;;;;;;8.19;81.22;99295.50;2624542;54;20026;-70
2022/02/03 06:39:19;;;;;;;6.18;5.57;;;;;;;8.16;81.75;99299.28;2623917;47;20051;-69
2022/02/03 06:41:54;;;;;;;7.88;5.45;;;;;;;8.14;81.59;99289.91;2622987;47;20075;-69
2022/02/03 06:44:29;;;;;;;6.47;4.55;;;;;;;8.16;81.24;99293.19;2623518;54;20075;-69
2022/02/03 06:47:04;;;;;;;5.47;4.75;;;;;;;8.12;81.39;99294.50;2623585;54;20034;-69
2022/02/03 06:49:43;;;;;;;5.13;4.35;;;;;;;8.13;81.67;99283.81;2623691;54;20046;-69
2022/02/03 06:52:21;;;;;;;5.35;4.70;;;;;;;8.17;81.43;99281.69;2623381;54;20026;-69
2022/02/03 06:55:03;;;;;;;6.03;4.88;;;;;;;8.16;81.54;99282.66;2622269;54;20038;-69
2022/02/03 06:57:38;;;;;;;5.57;4.65;;;;;;;8.16;81.98;99280.84;2623634;54;20030;-70
2022/02/03 07:00:17;;;;;;;5.93;4.18;;;;;;;8.16;81.69;99282.66;2625385;54;20046;-70
2022/02/03 07:02:51;;;;;;;4.72;4.25;;;;;;;8.10;81.88;99272.78;2626000;54;20026;-70
2022/02/03 07:05:21;;;;;;;4.95;3.50;;;;;;;8.09;81.63;99276.41;2625442;54;20038;-72
2022/02/03 07:07:55;;;;;;;5.60;4.25;;;;;;;8.05;81.64;99261.94;2625323;54;20066;-69
2022/02/03 07:10:25;;;;;;;5.22;4.50;;;;;;;8.04;81.52;99261.13;2624361;47;20025;-68
2022/02/03 07:12:57;;;;;;;3.15;2.85;;;;;;;8.08;81.23;99261.59;2623373;54;20564;-69
2022/02/03 07:15:27;;;;;;;4.78;3.47;;;;;;;8.09;81.09;99256.16;2622708;54;20062;-69
2022/02/03 07:17:59;;;;;;;5.68;5.10;;;;;;;8.13;81.22;99259.28;2622409;47;20027;-70
2022/02/03 07:20:30;;;;;;;4.72;4.25;;;;;;;8.12;80.81;99263.75;2622058;54;20038;-69
2022/02/03 07:23:02;;;;;;;3.92;3.53;;;;;;;8.12;80.57;99258.47;2621350;54;20043;-70
2022/02/03 07:25:32;;;;;;;6.28;3.45;;;;;;;8.11;80.80;99256.81;2621833;47;20065;-69
2022/02/03 07:28:02;;;;;;;5.63;4.20;;;;;;;8.11;80.43;99256.00;2623229;54;20066;-69
2022/02/03 07:30:32;;;;;;;5.03;4.50;;;;;;;8.12;80.88;99247.09;2623833;54;20038;-69
2022/02/03 07:33:04;;;;;;;5.75;4.10;;;;;;;8.09;80.74;99242.19;2623830;54;20034;-70
2022/02/03 07:35:35;;;;;;;4.50;4.10;;;;;;;8.10;81.23;99242.00;2622440;54;20045;-70
2022/02/03 07:38:08;;;;;;;6.35;4.13;;;;;;;8.11;81.14;99235.75;2623377;54;20029;-70
2022/02/03 07:40:38;;;;;;;3.78;3.47;;;;;;;8.13;80.58;99232.97;2622959;54;20045;-70
2022/02/03 07:43:10;;;;;;;3.58;3.03;;;;;;;8.16;80.91;99228.19;2622239;47;20038;-70
2022/02/03 07:45:40;;;;;;;3.63;2.63;;;;;;;8.16;80.50;99227.34;2622235;54;20035;-70
2022/02/03 07:48:10;;;;;;;3.05;2.75;;;;;;;8.20;80.05;99236.56;2622664;54;20038;-71
2022/02/03 07:50:39;;;;;;;4.63;3.88;;;;;;;8.24;80.32;99232.59;2622491;54;20547;-70
2022/02/03 07:53:11;;;;;;;2.65;2.42;;;;;;;8.23;79.78;99233.59;2623284;54;20042;-70
2022/02/03 07:55:41;;;;;;;3.85;3.03;;;;;;;8.27;79.62;99227.00;2623437;54;20031;-71
2022/02/03 07:58:11;;;;;;;4.18;2.85;;;;;;;8.29;79.21;99221.59;2624578;47;20062;-71
2022/02/03 08:00:40;;;;;;;4.13;3.17;;;;;;;8.31;79.15;99203.78;2625474;54;20035;-69
2022/02/03 08:03:14;;;;;;;3.75;2.97;;;;;;;8.30;78.97;99208.25;2623088;54;20034;-70
2022/02/03 08:05:50;;;;;;;4.35;2.80;;;;;;;8.34;79.21;99196.38;2622944;54;20038;-69
2022/02/03 08:08:27;;;;;;;3.85;3.33;;;;;;;8.39;79.16;99194.09;2622292;54;20037;-69
2022/02/03 08:11:00;;;;;;;5.07;3.20;;;;;;;8.44;79.27;99194.38;2622382;54;20078;-70
2022/02/03 08:13:33;;;;;;;3.38;3.08;;;;;;;8.47;78.66;99201.16;2623581;54;20031;-69
2022/02/03 08:16:10;;;;;;;4.57;3.40;;;;;;;8.47;78.64;99203.78;2623140;39;20422;-70
2022/02/03 08:18:47;;;;;;;4.88;3.42;;;;;;;8.50;78.78;99210.53;2622495;47;20074;-70
2022/02/03 08:21:18;;;;;;;8.35;3.25;;;;;;;8.43;78.76;99221.72;2623238;54;20042;-70
2022/02/03 08:26:46;;;;;;;5.18;3.97;;;;;;;8.42;78.31;99206.91;2621902;54;20022;-69
2022/02/03 08:29:36;;;;;;;6.05;4.35;;;;;;;8.45;78.98;99213.69;2621971;54;20030;-70
2022/02/03 08:32:12;;;;;;;4.70;2.88;;;;;;;8.43;78.43;99215.66;2622718;54;20038;-70
2022/02/03 08:35:09;;;;;;;3.75;3.35;;;;;;;8.42;78.41;99201.66;2625039;54;20042;-69
2022/02/03 08:37:57;;;;;;;4.75;3.47;;;;;;;8.39;78.23;99191.44;2627034;54;20042;-70
2022/02/03 08:40:32;;;;;;;4.63;3.55;;;;;;;8.43;78.77;99194.56;2627557;54;20031;-71
2022/02/03 08:43:01;;;;;;;4.97;3.70;;;;;;;8.44;78.40;99197.03;2626664;47;20058;-69
2022/02/03 08:45:31;;;;;;;4.18;3.35;;;;;;;8.39;77.98;99199.34;2627197;54;20026;-69
2022/02/03 08:48:00;;;;;;;5.50;3.40;;;;;;;8.37;78.36;99187.34;2627178;54;20034;-69
2022/02/03 08:50:32;;;;;;;4.05;3.65;;;;;;;8.40;78.38;99179.09;2627168;54;20026;-70
2022/02/03 08:53:07;;;;;;;7.40;3.67;;;;;;;8.38;78.16;99178.44;2627343;47;20039;-69
2022/02/03 08:55:47;;;;;;;4.18;3.30;;;;;;;8.29;78.13;99182.91;2626298;54;20056;-69
2022/02/03 08:58:55;;;;;;;6.30;3.47;;;;;;;8.29;78.53;99184.72;2627294;54;20026;-68
2022/02/03 09:54:26;;;;;;;2.75;1.95;;;;;;;8.72;74.83;99103.53;2617796;54;20125;-71
2022/02/03 09:57:10;;;;;;;1.80;1.60;;;;;;;8.88;74.52;99106.91;2618028;54;20027;-69
2022/02/03 09:59:49;;;;;;;2.97;1.73;;;;;;;8.93;74.52;99104.56;2618673;54;20069;-70
2022/02/03 10:02:26;;;;;;;2.30;2.10;;;;;;;8.94;73.66;99094.84;2618076;54;20030;-69
2022/02/03 10:04:58;;;;;;;2.20;1.95;;;;;;;8.91;73.81;99096.00;2617936;54;20034;-70
2022/02/03 10:07:34;;;;;;;2.20;1.73;;;;;;;8.84;73.49;99096.88;2618989;54;20792;-70
2022/02/03 10:10:08;;;;;;;3.42;2.00;;;;;;;8.85;74.22;99101.97;2619004;54;20050;-71
2022/02/03 10:12:40;;;;;;;2.85;2.35;;;;;;;8.86;73.76;99089.63;2617543;47;20038;-70
2022/02/03 10:15:12;;;;;;;2.15;1.95;;;;;;;8.86;74.33;99097.53;2617986;54;20154;-71
2022/02/03 10:17:48;;;;;;;2.60;2.40;;;;;;;8.88;74.02;99101.63;2618137;54;20027;-70
2022/02/03 10:20:22;;;;;;;2.85;2.20;;;;;;;8.91;74.10;99084.66;2618040;54;20057;-70
2022/02/03 10:22:55;;;;;;;3.67;3.03;;;;;;;8.92;73.90;99062.56;2617916;47;20034;-70
2022/02/03 10:25:34;;;;;;;5.20;4.68;;;;;;;8.88;73.69;99082.34;2618031;54;20038;-69
2022/02/03 10:28:07;;;;;;;2.72;2.05;;;;;;;8.83;73.42;99076.78;2617833;54;20027;-69
2022/02/03 10:30:44;;;;;;;2.60;2.40;;;;;;;8.83;73.45;99077.59;2617910;54;20034;-68
2022/02/03 10:33:16;;;;;;;2.70;2.20;;;;;;;8.90;73.83;99054.00;2619820;54;20041;-69
2022/02/03 10:35:50;;;;;;;3.60;3.05;;;;;;;8.85;73.76;99049.25;2625591;54;20035;-69
2022/02/03 10:41:39;;;;;;;6.72;4.55;;;;;;;8.83;74.13;99059.16;2618271;54;20600;-70
2022/02/03 10:47:05;;;;;;;5.45;3.53;;;;;;;8.90;74.31;99035.56;2618741;54;20174;-70
2022/02/03 10:50:17;;;;;;;4.22;3.20;;;;;;;8.95;73.71;99027.94;2618077;54;20065;-69
2022/02/03 10:58:26;;;;;;;3.80;3.30;;;;;;;8.73;74.04;99034.81;2618733;54;20089;-70
2022/02/03 11:03:59;;;;;;;4.72;3.67;;;;;;;8.66;73.40;99041.81;2617932;54;20046;-70
2022/02/03 11:06:38;;;;;;;4.90;3.35;;;;;;;8.70;73.79;99023.84;2618583;54;20585;-70
2022/02/03 11:09:17;;;;;;;5.75;4.75;;;;;;;8.70;74.06;99003.56;2618076;54;20061;-69
2022/02/03 11:11:54;;;;;;;3.53;3.22;;;;;;;8.73;73.84;99010.28;2617069;54;20061;-69
2022/02/03 11:14:25;;;;;;;4.35;3.78;;;;;;;8.78;74.01;99003.50;2617983;54;20030;-69
2022/02/03 11:16:55;;;;;;;3.72;3.33;;;;;;;8.79;73.57;98994.59;2617313;54;20046;-61
2022/02/03 11:19:31;;;;;;;5.70;3.22;;;;;;;8.78;74.06;99000.88;2618924;39;20469;-65
2022/02/03 11:22:08;;;;;;;4.30;3.38;;;;;;;8.83;73.82;98984.53;2618841;31;20558;-66
2022/02/03 11:24:44;;;;;;;3.42;3.13;;;;;;;8.87;73.92;98986.63;2618759;31;20478;-65
2022/02/03 11:27:24;;;;;;;4.75;3.42;;;;;;;8.90;74.06;98975.72;2618502;54;20030;-65
2022/02/03 11:30:45;;;;;;;3.70;3.30;;;;;;;8.90;73.80;98983.66;2618316;54;20081;-64
2022/02/03 11:36:25;;;;;;;;;;;;;;;8.79;73.58;98988.50;2618782;54;20034;-66
2022/02/03 11:45:13;;;;;;;4.22;3.58;;;;;;;8.68;73.75;98958.09;2623276;54;20045;-65
2022/02/03 11:47:57;;;;;;;4.40;3.67;;;;;;;8.56;73.70;98954.25;2623346;54;20042;-63
2022/02/03 11:50:54;;;;;;;5.43;3.60;;;;;;;8.60;73.93;98952.91;2622626;54;20038;-64
2022/02/03 11:59:43;;;;;;;;;;;;;;;8.59;73.46;98941.53;2621626;46;20074;-65
2022/02/03 12:02:33;;;;;;;6.18;3.30;;;;;;;8.57;73.56;98945.34;2622382;54;19939;-67
2022/02/03 12:05:16;;;;;;;3.67;3.33;;;;;;;8.57;73.52;98946.19;2621364;47;20033;-65
2022/02/03 12:10:20;;;;;;;3.30;3.00;;;;;;;8.55;73.39;98945.53;2623041;54;20034;-62
2022/02/03 12:14:38;;;;;;;4.20;3.42;;;;;;;8.48;73.44;98928.75;2621532;54;20050;-63
2022/02/03 12:17:26;;;;;;;2.65;2.45;;;;;;;8.51;73.26;98925.78;2622316;54;20041;-63
2022/02/03 12:20:07;;;;;;;3.08;2.78;;;;;;;8.46;73.42;98945.75;2620157;54;20049;-64
2022/02/03 12:22:47;;;;;;;4.00;3.22;;;;;;;8.47;73.41;98928.97;2618185;47;20035;-64
2022/02/03 12:25:36;;;;;;;4.43;3.30;;;;;;;8.56;73.49;98915.53;2617744;54;20031;-64
2022/02/03 12:28:20;;;;;;;4.68;3.47;;;;;;;8.70;73.26;98918.41;2618176;39;20426;-64
2022/02/03 12:31:12;;;;;;;5.70;3.85;;;;;;;8.75;72.73;98903.69;2617880;54;20030;-64
2022/02/03 12:39:24;;;;;;;3.50;3.15;;;;;;;8.83;71.94;98895.72;2618541;54;20054;-64
2022/02/03 12:42:06;;;;;;;4.55;3.70;;;;;;;8.75;71.99;98887.06;2617906;54;20026;-65
2022/02/03 12:44:41;;;;;;;4.25;3.28;;;;;;;8.64;71.51;98893.56;2618510;31;20503;-65
2022/02/03 12:47:11;;;;;;;4.97;3.78;;;;;;;8.63;72.04;98884.03;2618171;54;20039;-66
2022/02/03 12:49:41;;;;;;;3.63;3.33;;;;;;;8.49;72.00;98876.88;2618846;54;20641;-64
2022/02/03 12:52:25;;;;;;;8.68;3.70;;;;;;;8.44;72.73;98883.50;2618595;51;20026;-65
2022/02/03 12:54:55;;;;;;;6.60;4.28;;;;;;;8.39;72.53;98875.31;2618233;54;20151;-65
2022/02/03 12:57:30;;;;;;;3.45;3.15;;;;;;;8.35;72.97;98876.63;2618312;54;20039;-64
2022/02/03 13:00:20;;;;;;;3.58;3.28;;;;;;;8.33;72.79;98869.94;2619076;54;20039;-64
2022/02/03 13:03:14;;;;;;;5.78;3.35;;;;;;;8.26;72.36;98859.28;2618814;54;20046;-64
2022/02/03 13:05:53;;;;;;;3.47;2.60;;;;;;;8.18;72.04;98865.41;2617863;54;20038;-65
2022/02/03 13:08:34;;;;;;;4.13;2.80;;;;;;;8.19;72.44;98860.97;2618740;54;20057;-65
2022/02/03 13:11:15;;;;;;;2.17;2.05;;;;;;;8.20;72.03;98849.44;2618703;54;20545;-65
2022/02/03 13:13:55;;;;;;;2.13;1.92;;;;;;;8.14;72.14;98840.44;2618351;47;20081;-65
2022/02/03 13:16:27;;;;;;;2.80;2.00;;;;;;;8.17;72.10;98841.91;2619121;54;20031;-63
2022/02/03 13:19:07;;;;;;;2.25;2.05;;;;;;;8.24;71.82;98845.44;2618798;54;20053;-65
2022/02/03 13:21:50;;;;;;;2.08;1.88;;;;;;;8.28;72.01;98833.56;2618355;54;20038;-64
2022/02/03 13:24:39;;;;;;;9.85;2.60;;;;;;;8.41;71.92;98844.38;2618528;54;20034;-65
2022/02/03 13:27:16;;;;;;;2.90;2.10;;;;;;;8.41;70.63;98841.75;2618941;39;20438;-65
2022/02/03 13:30:00;;;;;;;2.83;2.00;;;;;;;8.28;70.39;98841.47;2618216;54;20046;-64
2022/02/03 13:32:39;;;;;;;2.70;2.05;;;;;;;8.34;70.92;98837.31;2617914;54;20074;-64
2022/02/03 13:35:31;;;;;;;2.50;2.10;;;;;;;8.37;70.86;98843.09;2618347;54;20568;-65
2022/02/03 13:38:06;;;;;;;1.70;1.58;;;;;;;8.39;71.17;98846.34;2617915;47;20046;-64
2022/02/03 13:40:36;;;;;;;2.55;2.35;;;;;;;8.38;70.83;98842.09;2618069;54;20019;-65
2022/02/03 13:43:09;;;;;;;2.42;2.22;;;;;;;8.36;70.46;98844.03;2618508;54;20079;-64
2022/02/03 13:45:46;;;;;;;2.60;2.15;;;;;;;8.36;70.33;98843.22;2618149;54;20545;-65
2022/02/03 13:48:20;;;;;;;2.25;2.05;;;;;;;8.34;70.48;98835.50;2617273;54;20065;-63
2022/02/03 13:50:56;;;;;;;14.57;7.75;;;;;;;8.36;70.06;98841.41;2618285;54;20085;-64
2022/02/03 13:53:34;;;;;;;2.22;2.05;;;;;;;8.37;70.42;98827.28;2618354;54;20039;-64
2022/02/03 14:18:32;;;;;;;6.25;5.07;;;;;;;8.12;69.83;98775.75;2617361;54;20038;-65
2022/02/03 14:21:07;;;;;;;4.82;3.08;;;;;;;8.08;69.15;98783.22;2618385;54;20530;-64
2022/02/03 14:29:12;;;;;;;4.97;4.05;;;;;;;8.13;69.53;98764.25;2618358;54;20098;-65
2022/02/03 14:31:50;;;;;;;9.35;4.32;;;;;;;8.22;69.48;98778.16;2618182;54;20030;-65
2022/02/03 14:34:25;;;;;;;3.95;3.22;;;;;;;8.19;69.21;98772.25;2619772;54;20030;-65
2022/02/03 14:37:04;;;;;;;4.03;3.33;;;;;;;8.19;69.12;98779.31;2619676;54;20050;-64
2022/02/03 14:39:55;;;;;;;4.78;4.30;;;;;;;8.19;69.01;98766.16;2618463;54;20081;-63
2022/02/03 14:42:28;;;;;;;4.13;3.72;;;;;;;8.18;69.04;98767.16;2618363;54;20085;-63
2022/02/03 14:44:58;;;;;;;4.72;4.20;;;;;;;8.14;69.31;98774.59;2618109;54;20034;-65
2022/02/03 14:47:30;;;;;;;6.90;5.03;;;;;;;8.08;69.37;98780.59;2617742;54;20105;-66
2022/02/03 14:50:02;;;;;;;5.65;5.03;;;;;;;8.05;68.93;98782.75;2617147;47;20031;-65
2022/02/03 14:52:53;;;;;;;8.20;6.20;;;;;;;8.03;69.53;98787.34;2617135;54;20134;-64
2022/02/03 14:58:12;;;;;;;10.10;5.90;;;;;;;7.91;69.10;98794.84;2618356;54;20538;-63
2022/02/03 15:00:48;;;;;;;7.38;6.25;;;;;;;7.92;69.13;98778.91;2618335;54;20037;-64
2022/02/03 15:03:19;;;;;;;6.55;5.10;;;;;;;7.85;68.79;98772.69;2618687;39;20441;-65
2022/02/03 15:05:55;;;;;;;10.82;6.72;;;;;;;7.83;69.11;98776.47;2618157;54;20038;-64
2022/02/03 15:08:46;;;;;;;10.40;6.75;;;;;;;7.96;69.09;98787.25;2617980;54;20106;-66
2022/02/03 15:11:25;;;;;;;7.10;5.53;;;;;;;7.89;68.50;98786.31;2619442;54;20086;-65
2022/02/03 15:13:55;;;;;;;8.60;6.25;;;;;;;7.86;68.77;98784.84;2620264;54;20593;-64
2022/02/03 15:16:26;;;;;;;6.57;5.82;;;;;;;7.87;68.37;98778.59;2620226;39;20454;-64
2022/02/03 15:19:16;;;;;;;7.93;7.03;;;;;;;7.83;69.08;98781.75;2618498;54;20031;-64
2022/02/03 15:21:46;;;;;;;7.82;6.70;;;;;;;7.88;68.86;98776.78;2618741;54;20085;-65
2022/02/03 15:24:18;;;;;;;6.65;6.05;;;;;;;7.89;68.91;98787.13;2617851;39;20430;-65
2022/02/03 15:26:48;;;;;;;9.35;5.97;;;;;;;7.95;69.45;98785.59;2618191;54;20032;-63
2022/02/03 15:29:18;;;;;;;8.10;6.72;;;;;;;7.97;69.51;98783.63;2617418;54;20050;-65
2022/02/03 15:31:50;;;;;;;6.50;5.90;;;;;;;8.00;69.57;98792.97;2618376;54;20042;-64
2022/02/03 15:34:36;;;;;;;6.50;5.80;;;;;;;7.94;69.50;98792.69;2617680;54;20045;-62
2022/02/03 15:37:12;;;;;;;6.75;6.07;;;;;;;7.90;69.42;98790.59;2617578;54;20038;-63
2022/02/03 15:39:48;;;;;;;5.93;5.30;;;;;;;7.93;69.95;98791.06;2617604;47;20022;-64
2022/02/03 15:42:23;;;;;;;7.32;5.72;;;;;;;7.90;69.48;98790.59;2618854;31;20519;-64
2022/02/03 15:44:55;;;;;;;6.43;5.80;;;;;;;7.95;69.69;98775.06;2617878;54;20042;-64
2022/02/03 15:47:32;;;;;;;6.07;5.38;;;;;;;7.95;69.45;98772.44;2618152;54;20038;-63
2022/02/03 15:50:39;;;;;;;6.68;5.97;;;;;;;7.99;69.52;98786.06;2618029;54;20042;-64
2022/02/03 16:01:35;;;;;;;6.30;5.30;;;;;;;8.00;69.56;98774.53;2618110;54;20174;-64
2022/02/03 16:04:22;;;;;;;5.60;5.10;;;;;;;8.01;69.57;98784.91;2617737;54;20046;-64
2022/02/03 16:17:50;;;;;;;5.93;4.93;;;;;;;7.84;69.54;98747.38;2617688;54;20035;-63
2022/02/03 16:20:25;;;;;;;6.10;5.50;;;;;;;7.86;69.79;98760.34;2618218;46;20042;-65
2022/02/03 16:23:12;;;;;;;6.15;5.43;;;;;;;7.88;69.61;98756.56;2619394;54;20073;-65
2022/02/03 16:50:45;;;;;;;5.30;4.80;;;;;;;7.83;69.94;98737.00;2622017;54;20034;-65
2022/02/03 16:53:18;;;;;;;5.10;4.20;;;;;;;7.84;70.33;98730.75;2622621;54;20038;-65
2022/02/03 16:55:48;;;;;;;8.48;6.50;;;;;;;7.88;70.35;98732.88;2621266;54;20034;-65
2022/02/03 16:58:18;;;;;;;6.95;3.78;;;;;;;7.93;69.95;98742.88;2622637;54;20035;-65
2022/02/03 17:00:50;;;;;;;5.60;4.68;;;;;;;7.86;70.06;98728.75;2622169;49;20034;-65
2022/02/03 17:03:22;;;;;;;5.20;4.70;;;;;;;7.90;70.14;98730.03;2621969;54;20045;-63
2022/02/03 17:05:52;;;;;;;6.85;5.35;;;;;;;7.87;70.01;98736.47;2621227;54;20101;-65
2022/02/03 17:08:24;;;;;;;5.45;4.85;;;;;;;7.86;70.22;98739.28;2621050;54;20030;-64
2022/02/03 17:10:54;;;;;;;4.80;4.30;;;;;;;7.76;70.11;98734.28;2621583;54;20042;-64
2022/02/03 17:13:27;;;;;;;3.95;3.40;;;;;;;7.78;70.27;98741.97;2620614;39;20474;-67
2022/02/03 17:15:59;;;;;;;4.05;3.60;;;;;;;7.73;70.54;98750.41;2623778;54;20082;-65
2022/02/03 17:18:30;;;;;;;3.45;3.15;;;;;;;7.72;70.66;98767.19;2623358;47;20057;-65
2022/02/03 17:21:01;;;;;;;7.28;5.40;;;;;;;7.76;70.98;98757.16;2623456;54;20053;-65
2022/02/03 17:23:31;;;;;;;4.60;4.07;;;;;;;7.79;70.84;98751.50;2623175;54;20114;-65
2022/02/03 17:26:09;;;;;;;3.92;3.63;;;;;;;7.79;70.86;98757.59;2622916;54;20045;-66
2022/02/03 17:28:48;;;;;;;4.63;3.35;;;;;;;7.81;70.65;98749.53;2623099;39;20501;-65
2022/02/03 17:31:28;;;;;;;3.92;3.50;;;;;;;7.80;70.94;98742.66;2620538;47;20046;-65
2022/02/03 17:45:39;;;;;;;5.97;5.30;;;;;;;7.74;70.94;98730.19;2621534;54;20037;-66
2022/02/03 18:10:51;;;;;;;4.85;4.35;;;;;;;7.77;71.72;98716.66;2619348;46;20074;-64
2022/02/03 18:29:58;;;;;;;5.35;4.85;;;;;;;7.55;71.89;98728.81;2618380;54;20038;-65
2022/02/03 18:52:02;;;;;;;3.63;3.00;;;;;;;7.50;71.58;98731.97;2618748;54;20089;-63
2022/02/03 18:54:49;;;;;;;4.43;3.25;;;;;;;7.43;71.73;98739.75;2618083;54;20560;-65
2022/02/03 18:57:31;;;;;;;9.50;6.50;;;;;;;7.37;71.71;98744.88;2619086;46;20058;-64
2022/02/03 19:00:30;;;;;;;7.70;5.47;;;;;;;7.36;71.67;98740.63;2618190;54;20034;-63
2022/02/03 20:03:54;;;;;;;11.27;8.57;;;;;;;7.09;70.80;98747.16;2618704;54;20027;-65
2022/02/03 20:06:38;;;;;;;12.23;9.93;;;;;;;7.01;70.77;98748.00;2618904;54;20138;-65
2022/02/03 20:09:17;;;;;;;13.67;10.17;;;;;;;6.99;70.91;98741.31;2618905;54;20542;-65
2022/02/03 20:11:49;;;;;;;15.80;9.98;;;;;;;7.05;70.80;98740.59;2618973;54;20283;-65
2022/02/03 20:14:20;;;;;;;15.32;10.77;;;;;;;7.03;70.49;98738.16;2618881;54;20023;-65
2022/02/03 20:16:52;;;;;;;16.33;11.32;;;;;;;7.06;70.77;98740.47;2618410;54;20042;-64
2022/02/03 20:19:25;;;;;;;13.27;10.15;;;;;;;7.07;70.61;98738.66;2618934;54;20083;-65
2022/02/03 20:21:55;;;;;;;14.00;10.23;;;;;;;7.04;70.41;98741.59;2619031;54;20050;-64
2022/02/03 20:24:25;;;;;;;15.02;10.93;;;;;;;7.05;71.07;98746.69;2619070;54;20054;-66
2022/02/03 20:26:55;;;;;;;14.38;10.40;;;;;;;7.04;70.83;98750.31;2618898;54;20158;-63
2022/02/03 20:29:24;;;;;;;13.65;9.45;;;;;;;6.99;70.81;98751.81;2619035;54;20174;-66
2022/02/03 20:31:56;;;;;;;11.23;8.25;;;;;;;6.94;70.70;98747.91;2619230;54;20263;-64
2022/02/03 20:34:26;;;;;;;11.80;8.10;;;;;;;6.86;70.80;98752.38;2618443;54;20042;-64
2022/02/03 20:36:55;;;;;;;10.30;7.82;;;;;;;6.82;70.92;98741.38;2619348;39;20446;-65
2022/02/03 20:39:25;;;;;;;14.77;9.18;;;;;;;6.80;71.26;98742.53;2618635;47;20043;-64
2022/02/03 20:41:55;;;;;;;10.32;7.55;;;;;;;6.87;71.44;98739.03;2619018;54;20154;-63
2022/02/03 20:44:25;;;;;;;12.07;7.85;;;;;;;6.83;71.20;98732.50;2619046;54;20038;-64
2022/02/03 20:46:57;;;;;;;11.80;8.52;;;;;;;6.85;71.24;98735.75;2618828;54;20569;-64
2022/02/03 20:49:27;;;;;;;12.35;9.18;;;;;;;6.83;71.33;98735.13;2618265;47;20041;-64
2022/02/03 20:51:57;;;;;;;11.65;7.95;;;;;;;6.67;71.25;98741.25;2619022;54;20073;-64
2022/02/03 20:54:26;;;;;;;13.25;8.18;;;;;;;6.60;71.97;98744.72;2618972;54;20049;-64
2022/02/03 20:56:57;;;;;;;11.95;9.38;;;;;;;6.63;72.21;98739.13;2619651;39;20486;-66
2022/02/03 20:59:30;;;;;;;10.77;8.52;;;;;;;6.67;72.49;98740.44;2619359;54;20030;-65
2022/02/03 21:02:08;;;;;;;13.13;9.57;;;;;;;6.69;72.31;98738.44;2619592;54;20043;-65
2022/02/03 21:04:56;;;;;;;11.95;9.23;;;;;;;6.63;72.22;98747.81;2619031;54;20026;-64
2022/02/03 21:07:26;;;;;;;12.18;9.98;;;;;;;6.60;72.33;98742.91;2619701;31;20558;-65
2022/02/03 21:09:56;;;;;;;13.30;9.10;;;;;;;6.57;72.70;98740.63;2619142;54;20026;-65
2022/02/03 21:12:25;;;;;;;14.10;9.45;;;;;;;6.64;72.55;98741.59;2619612;54;20093;-64
2022/02/03 21:14:55;;;;;;;14.05;9.77;;;;;;;6.58;72.52;98742.28;2618321;54;20031;-65
2022/02/03 21:17:30;;;;;;;14.38;10.13;;;;;;;6.56;73.02;98738.97;2618308;47;20065;-65
2022/02/03 21:20:07;;;;;;;13.15;10.13;;;;;;;6.57;73.41;98734.53;2618866;54;20045;-64
2022/02/03 21:22:38;;;;;;;15.02;10.93;;;;;;;6.60;73.22;98737.66;2618993;54;20035;-65
2022/02/03 21:25:17;;;;;;;13.73;9.45;;;;;;;6.64;73.27;98731.06;2617912;47;20034;-66
2022/02/03 21:27:48;;;;;;;13.95;9.60;;;;;;;6.60;72.90;98745.53;2617856;47;20162;-65
2022/02/03 21:30:19;;;;;;;13.82;9.63;;;;;;;6.57;73.06;98731.91;2618982;54;20034;-64
2022/02/03 21:32:53;;;;;;;13.75;9.65;;;;;;;6.49;73.50;98743.28;2619227;54;20041;-65
2022/02/03 21:35:23;;;;;;;13.20;10.13;;;;;;;6.50;73.74;98733.59;2618930;54;20038;-64
2022/02/03 21:37:53;;;;;;;15.02;10.65;;;;;;;6.50;73.62;98736.22;2619184;54;20040;-64
2022/02/03 21:40:24;;;;;;;13.07;10.38;;;;;;;6.58;73.88;98739.63;2623775;54;20621;-64
2022/02/03 21:42:53;;;;;;;12.95;9.82;;;;;;;6.58;73.77;98734.38;2623552;54;20034;-64
2022/02/03 21:45:23;;;;;;;14.32;10.70;;;;;;;6.63;73.78;98742.56;2623698;54;20030;-65
2022/02/03 21:47:56;;;;;;;13.90;10.20;;;;;;;6.59;73.66;98749.16;2623491;54;20030;-65
2022/02/03 21:50:30;;;;;;;16.98;11.30;;;;;;;6.59;73.81;98748.34;2622930;54;20035;-63
2022/02/03 21:53:04;;;;;;;17.45;12.18;;;;;;;6.59;73.57;98743.91;2622600;54;20041;-64
2022/02/03 21:55:35;;;;;;;17.75;12.05;;;;;;;6.56;73.58;98754.72;2623063;54;20042;-65
2022/02/03 21:58:05;;;;;;;16.83;11.10;;;;;;;6.59;73.89;98753.59;2622331;54;20050;-65
2022/02/03 22:00:35;;;;;;;15.77;10.90;;;;;;;6.58;73.80;98754.59;2622477;54;20034;-64
2022/02/03 22:03:08;;;;;;;14.50;10.23;;;;;;;6.61;73.85;98757.69;2621959;54;20034;-64
2022/02/03 22:05:40;;;;;;;15.70;11.13;;;;;;;6.63;73.89;98754.91;2622703;54;20041;-64
2022/02/03 22:08:12;;;;;;;13.07;10.27;;;;;;;6.61;73.46;98759.47;2619488;54;20067;-65
2022/02/03 22:10:41;;;;;;;16.05;10.90;;;;;;;6.65;73.91;98764.25;2619162;54;20069;-64
2022/02/03 22:13:11;;;;;;;15.27;11.07;;;;;;;6.73;74.07;98762.56;2618905;54;20038;-65
2022/02/03 22:15:41;;;;;;;16.42;11.18;;;;;;;6.77;73.72;98767.31;2619029;39;20677;-63
2022/02/03 22:18:16;;;;;;;18.20;11.25;;;;;;;6.76;73.96;98781.44;2619378;54;20042;-63
2022/02/03 22:20:54;;;;;;;16.58;11.38;;;;;;;6.65;73.67;98779.16;2619146;54;20059;-65
2022/02/03 22:23:36;;;;;;;14.02;11.23;;;;;;;6.60;73.95;98782.31;2618857;54;20038;-64
2022/02/03 22:40:53;;;;;;;19.15;11.93;;;;;;;6.70;75.23;98792.66;2619179;39;20442;-65
2022/02/03 22:45:57;;;;;;;18.00;10.95;;;;;;;6.74;75.40;98790.50;2617206;52;20078;-63
2022/02/03 22:48:27;;;;;;;17.27;11.50;;;;;;;6.72;75.29;98795.91;2617863;54;20114;-63
2022/02/03 22:51:01;;;;;;;19.15;12.27;;;;;;;6.70;75.58;98800.53;2618778;54;20561;-62
2022/02/03 22:53:35;;;;;;;18.10;12.45;;;;;;;6.61;75.55;98804.13;2618040;47;20027;-62
2022/02/03 22:56:07;;;;;;;21.95;13.20;;;;;;;6.58;75.80;98796.63;2618402;54;20038;-63
2022/02/03 23:01:19;;;;;;;21.00;13.27;;;;;;;6.55;76.22;98796.94;2601615;54;20304;-69
2022/02/03 23:03:49;;;;;;;19.83;13.75;;;;;;;6.56;76.17;98803.81;2618560;54;20038;-69
2022/02/03 23:06:22;;;;;;;21.73;13.32;;;;;;;6.56;76.28;98793.31;2618015;54;20053;-68
2022/02/03 23:16:20;;;;;;;22.63;13.82;;;;;;;6.40;77.15;98796.78;2621278;46;20081;-65
2022/02/03 23:18:59;;;;;;;35.58;15.15;;;;;;;6.39;77.04;98798.59;2621743;54;20031;-66
2022/02/03 23:21:44;;;;;;;19.05;13.95;;;;;;;6.48;77.37;98802.03;2622780;39;20385;-66
2022/02/03 23:24:14;;;;;;;18.60;14.18;;;;;;;6.42;77.38;98807.97;2622648;54;20041;-64
2022/02/03 23:26:47;;;;;;;20.85;14.48;;;;;;;6.41;77.24;98807.13;2621116;54;20035;-65
2022/02/03 23:29:18;;;;;;;24.05;15.25;;;;;;;6.38;77.89;98812.72;2623262;39;20452;-67
2022/02/03 23:31:57;;;;;;;21.55;15.50;;;;;;;6.37;77.98;98808.47;2624935;39;20463;-66
2022/02/03 23:34:26;;;;;;;20.17;15.23;;;;;;;6.41;77.69;98814.19;2624076;54;20022;-66
2022/02/03 23:36:58;;;;;;;23.60;15.80;;;;;;;6.45;77.77;98805.00;2624512;39;20443;-66
2022/02/03 23:39:37;;;;;;;22.33;15.73;;;;;;;6.48;78.08;98807.28;2623351;47;20058;-66
2022/02/03 23:42:53;;;;;;;26.52;16.98;;;;;;;6.49;77.88;98795.81;2623478;54;20027;-66
2022/02/03 23:45:24;;;;;;;;;;;;;;;6.45;77.89;98805.81;2621473;47;20050;-66
